createdAt,value
2023-05-09T00:01:46.624Z,14.50
2023-05-09T00:04:48.141Z,14.46
2023-05-09T00:07:49.802Z,14.39
2023-05-09T00:10:51.199Z,14.38
2023-05-09T00:13:53.255Z,14.38
2023-05-09T00:16:55.032Z,14.34
2023-05-09T00:19:56.632Z,14.34
2023-05-09T00:22:57.972Z,14.36
2023-05-09T00:25:59.499Z,14.32
2023-05-09T00:29:00.893Z,14.34
2023-05-09T00:32:02.458Z,14.32
2023-05-09T00:35:04.309Z,14.31
2023-05-09T00:38:05.671Z,14.27
2023-05-09T00:41:07.018Z,14.30
2023-05-09T00:44:08.533Z,14.29
2023-05-09T00:47:09.963Z,14.31
2023-05-09T00:50:11.438Z,14.31
2023-05-09T00:53:13.204Z,14.27
2023-05-09T00:56:15.649Z,14.25
2023-05-09T00:59:18.107Z,14.20
2023-05-09T01:02:20.526Z,14.22
2023-05-09T01:05:27.175Z,14.21
2023-05-09T01:08:43.020Z,14.21
2023-05-09T01:11:57.147Z,14.19
2023-05-09T01:15:10.337Z,14.10
2023-05-09T01:18:19.316Z,14.05
2023-05-09T01:21:27.845Z,14.04
2023-05-09T01:25:07.449Z,14.05
2023-05-09T01:28:16.318Z,14.03
2023-05-09T01:31:19.571Z,14.07
2023-05-09T01:34:24.357Z,14.06
2023-05-09T01:37:31.630Z,14.09
2023-05-09T01:40:34.945Z,14.07
2023-05-09T01:43:38.074Z,14.03
2023-05-09T01:46:40.129Z,13.94
2023-05-09T01:49:42.803Z,13.87
2023-05-09T01:52:48.018Z,13.89
2023-05-09T01:55:51.588Z,13.88
2023-05-09T01:58:55.786Z,13.86
2023-05-09T02:01:57.977Z,13.78
2023-05-09T02:05:01.024Z,13.83
2023-05-09T02:08:02.509Z,13.77
2023-05-09T02:11:03.962Z,13.83
2023-05-09T02:14:06.311Z,13.81
2023-05-09T02:17:09.512Z,13.79
2023-05-09T02:20:11.619Z,13.84
2023-05-09T02:23:13.168Z,13.79
2023-05-09T02:26:14.769Z,13.78
2023-05-09T02:29:19.682Z,13.81
2023-05-09T02:32:23.075Z,13.82
2023-05-09T02:35:27.198Z,13.82
2023-05-09T02:38:28.553Z,13.83
2023-05-09T02:41:30.779Z,13.81
2023-05-09T02:44:32.847Z,13.76
2023-05-09T02:47:34.253Z,13.76
2023-05-09T02:50:38.098Z,13.73
2023-05-09T02:53:39.501Z,13.71
2023-05-09T02:56:40.874Z,13.71
2023-05-09T02:59:42.282Z,13.73
2023-05-09T03:02:43.865Z,13.71
2023-05-09T03:05:45.483Z,13.69
2023-05-09T03:08:46.827Z,13.69
2023-05-09T03:11:48.164Z,13.70
2023-05-09T03:14:49.556Z,13.71
2023-05-09T03:17:50.981Z,13.68
2023-05-09T03:20:52.479Z,13.65
2023-05-09T03:23:53.839Z,13.63
2023-05-09T03:26:55.238Z,13.60
2023-05-09T03:29:56.725Z,13.54
2023-05-09T03:32:58.130Z,13.49
2023-05-09T03:35:59.485Z,13.46
2023-05-09T03:39:00.945Z,13.48
2023-05-09T03:42:02.346Z,13.38
2023-05-09T03:45:04.023Z,13.36
2023-05-09T03:48:08.523Z,13.34
2023-05-09T03:51:10.083Z,13.33
2023-05-09T03:54:12.207Z,13.33
2023-05-09T03:57:13.636Z,13.36
2023-05-09T04:00:15.282Z,13.31
2023-05-09T04:03:16.802Z,13.30
2023-05-09T04:06:18.834Z,13.21
2023-05-09T04:09:20.370Z,13.18
2023-05-09T04:12:21.997Z,13.11
2023-05-09T04:15:26.302Z,13.22
2023-05-09T04:18:27.880Z,13.22
2023-05-09T04:21:29.305Z,13.20
2023-05-09T04:24:30.684Z,13.28
2023-05-09T04:27:32.040Z,13.22
2023-05-09T04:30:33.393Z,13.12
2023-05-09T04:33:35.913Z,13.04
2023-05-09T04:36:37.270Z,13.02
2023-05-09T04:39:39.048Z,13.11
2023-05-09T04:42:41.241Z,13.05
2023-05-09T04:45:42.612Z,13.00
2023-05-09T04:48:44.026Z,13.08
2023-05-09T04:51:45.488Z,13.11
2023-05-09T04:54:46.897Z,13.04
2023-05-09T04:57:48.281Z,13.07
2023-05-09T05:00:49.979Z,13.07
2023-05-09T05:03:51.336Z,13.09
2023-05-09T05:06:52.744Z,13.08
2023-05-09T05:09:54.114Z,13.21
2023-05-09T05:12:55.506Z,13.16
2023-05-09T05:15:58.342Z,13.09
2023-05-09T05:18:59.782Z,13.26
2023-05-09T05:22:01.494Z,13.37
2023-05-09T05:25:04.503Z,13.30
2023-05-09T05:28:06.029Z,13.30
2023-05-09T05:31:07.736Z,13.38
2023-05-09T05:34:09.168Z,13.39
2023-05-09T05:37:10.590Z,13.57
2023-05-09T05:40:12.012Z,13.51
2023-05-09T05:43:13.898Z,13.67
2023-05-09T05:46:15.338Z,13.62
2023-05-09T05:49:16.721Z,13.69
2023-05-09T05:52:18.124Z,13.74
2023-05-09T05:55:19.809Z,13.82
2023-05-09T05:58:21.724Z,13.82
2023-05-09T06:01:23.071Z,13.82
2023-05-09T06:04:24.926Z,13.93
2023-05-09T06:07:26.654Z,13.80
2023-05-09T06:10:28.101Z,13.70
2023-05-09T06:13:29.510Z,13.73
2023-05-09T06:16:31.052Z,13.68
2023-05-09T06:19:32.428Z,13.75
2023-05-09T06:22:33.902Z,13.63
2023-05-09T06:25:35.277Z,13.60
2023-05-09T06:28:37.144Z,13.48
2023-05-09T06:31:39.162Z,13.64
2023-05-09T06:34:41.969Z,13.63
2023-05-09T06:37:43.361Z,13.65
2023-05-09T06:40:44.714Z,13.83
2023-05-09T06:43:46.084Z,13.90
2023-05-09T06:46:47.554Z,14.11
2023-05-09T06:49:48.972Z,14.29
2023-05-09T06:52:50.374Z,14.40
2023-05-09T06:55:51.747Z,14.50
2023-05-09T06:58:53.385Z,14.45
2023-05-09T07:01:55.818Z,14.60
2023-05-09T07:04:57.333Z,14.72
2023-05-09T07:07:58.789Z,14.74
2023-05-09T07:11:00.169Z,14.83
2023-05-09T07:14:01.583Z,14.83
2023-05-09T07:17:21.182Z,14.90
2023-05-09T07:20:23.899Z,14.92
2023-05-09T07:23:26.965Z,14.95
2023-05-09T07:26:28.330Z,14.98
2023-05-09T07:29:29.796Z,15.08
2023-05-09T07:32:31.261Z,15.06
2023-05-09T07:35:32.624Z,15.19
2023-05-09T07:38:34.017Z,15.19
2023-05-09T07:41:35.373Z,15.29
2023-05-09T07:44:36.773Z,15.23
2023-05-09T07:47:38.228Z,15.46
2023-05-09T07:50:40.293Z,15.44
2023-05-09T07:53:41.649Z,15.50
2023-05-09T07:56:43.052Z,15.58
2023-05-09T07:59:44.403Z,15.47
2023-05-09T08:02:45.963Z,15.47
2023-05-09T08:05:47.450Z,15.67
2023-05-09T08:08:48.809Z,15.78
2023-05-09T08:11:50.260Z,15.73
2023-05-09T08:14:51.668Z,15.85
2023-05-09T08:17:53.149Z,15.94
2023-05-09T08:20:54.599Z,16.12
2023-05-09T08:23:55.984Z,16.14
2023-05-09T08:26:57.393Z,16.02
2023-05-09T08:29:58.753Z,16.24
2023-05-09T08:33:00.334Z,16.44
2023-05-09T08:36:02.419Z,16.53
2023-05-09T08:39:03.888Z,16.58
2023-05-09T08:42:06.024Z,16.58
2023-05-09T08:45:09.723Z,16.90
2023-05-09T08:48:11.694Z,16.75
2023-05-09T08:51:13.767Z,16.87
2023-05-09T08:54:15.821Z,16.92
2023-05-09T08:57:17.417Z,17.03
2023-05-09T09:00:21.389Z,17.07
2023-05-09T09:03:23.953Z,17.15
2023-05-09T09:06:25.877Z,17.07
2023-05-09T09:09:28.280Z,17.06
2023-05-09T09:12:29.940Z,17.13
2023-05-09T09:15:35.951Z,17.23
2023-05-09T09:18:39.308Z,17.48
2023-05-09T09:21:43.282Z,17.55
2023-05-09T09:24:44.685Z,17.62
2023-05-09T09:27:46.066Z,17.62
2023-05-09T09:30:48.335Z,17.76
2023-05-09T09:33:50.206Z,17.77
2023-05-09T09:36:51.615Z,18.01
2023-05-09T09:39:57.133Z,17.97
2023-05-09T09:42:58.514Z,17.98
2023-05-09T09:46:04.228Z,18.07
2023-05-09T09:49:05.668Z,18.45
2023-05-09T09:52:07.069Z,18.39
2023-05-09T09:55:08.795Z,18.51
2023-05-09T09:58:17.181Z,18.26
2023-05-09T10:01:18.637Z,18.51
2023-05-09T10:04:20.133Z,18.68
2023-05-09T10:07:23.918Z,18.64
2023-05-09T10:10:27.402Z,18.65
2023-05-09T10:13:29.078Z,18.77
2023-05-09T10:16:40.108Z,18.69
2023-05-09T10:19:46.374Z,19.01
2023-05-09T10:22:49.012Z,19.10
2023-05-09T10:26:16.512Z,19.23
2023-05-09T10:29:22.897Z,19.19
2023-05-09T10:32:31.362Z,19.41
2023-05-09T10:35:40.706Z,19.21
2023-05-09T10:38:42.824Z,19.47
2023-05-09T10:41:44.666Z,19.40
2023-05-09T10:44:49.670Z,19.51
2023-05-09T10:47:52.981Z,19.48
2023-05-09T10:50:55.704Z,19.58
2023-05-09T10:53:57.900Z,19.67
2023-05-09T10:57:00.124Z,19.70
2023-05-09T11:00:01.516Z,19.67
2023-05-09T11:03:06.888Z,19.78
2023-05-09T11:06:08.642Z,19.71
2023-05-09T11:09:38.249Z,19.77
2023-05-09T11:12:57.949Z,19.95
2023-05-09T11:16:02.751Z,20.00
2023-05-09T11:19:05.844Z,20.12
2023-05-09T11:22:20.077Z,20.17
2023-05-09T11:25:25.958Z,20.12
2023-05-09T11:28:30.198Z,20.37
2023-05-09T11:31:31.638Z,20.62
2023-05-09T11:34:34.210Z,20.74
2023-05-09T11:38:05.515Z,20.99
2023-05-09T11:41:07.168Z,21.04
2023-05-09T11:44:27.875Z,20.96
2023-05-09T11:47:30.712Z,20.92
2023-05-09T11:50:32.100Z,21.02
2023-05-09T11:53:33.717Z,21.07
2023-05-09T11:56:36.285Z,21.04
2023-05-09T11:59:38.358Z,21.19
2023-05-09T12:02:40.002Z,21.02
2023-05-09T12:05:42.603Z,21.02
2023-05-09T12:08:45.558Z,21.38
2023-05-09T12:11:50.328Z,21.63
2023-05-09T12:14:51.974Z,21.74
2023-05-09T12:18:07.901Z,21.98
2023-05-09T12:21:09.458Z,21.86
2023-05-09T12:24:10.851Z,21.81
2023-05-09T12:27:12.523Z,21.82
2023-05-09T12:30:16.056Z,21.86
2023-05-09T12:33:18.030Z,21.98
2023-05-09T12:36:19.486Z,22.21
2023-05-09T12:39:24.528Z,22.32
2023-05-09T12:42:29.236Z,22.46
2023-05-09T12:45:32.146Z,22.48
2023-05-09T12:48:37.865Z,22.36
2023-05-09T12:51:49.254Z,22.38
2023-05-09T12:54:52.440Z,22.52
2023-05-09T12:58:02.251Z,22.53
2023-05-09T13:01:04.681Z,22.63
2023-05-09T13:04:06.695Z,22.74
2023-05-09T13:07:11.306Z,22.81
2023-05-09T13:10:14.456Z,22.91
2023-05-09T13:13:16.663Z,22.79
2023-05-09T13:16:18.315Z,22.85
2023-05-09T13:19:19.828Z,23.04
2023-05-09T13:22:21.182Z,23.33
2023-05-09T13:25:22.547Z,23.33
2023-05-09T13:28:23.911Z,23.27
2023-05-09T13:31:25.556Z,23.20
2023-05-09T13:34:27.120Z,23.31
2023-05-09T13:37:28.593Z,23.51
2023-05-09T13:40:29.974Z,23.55
2023-05-09T13:43:31.307Z,23.54
2023-05-09T13:46:32.735Z,23.78
2023-05-09T13:49:34.931Z,23.49
2023-05-09T13:52:36.354Z,23.51
2023-05-09T13:55:37.873Z,23.56
2023-05-09T13:58:39.229Z,23.59
2023-05-09T14:01:41.112Z,23.53
2023-05-09T14:04:42.538Z,23.67
2023-05-09T14:07:44.981Z,23.67
2023-05-09T14:10:46.395Z,23.73
2023-05-09T14:13:47.837Z,23.82
2023-05-09T14:16:49.645Z,23.59
2023-05-09T14:19:51.057Z,23.71
2023-05-09T14:22:54.973Z,23.59
2023-05-09T14:25:56.409Z,23.71
2023-05-09T14:28:57.804Z,23.74
2023-05-09T14:31:59.161Z,23.86
2023-05-09T14:35:00.702Z,23.80
2023-05-09T14:38:03.029Z,23.71
2023-05-09T14:41:04.564Z,23.74
2023-05-09T14:44:05.975Z,23.52
2023-05-09T14:47:08.434Z,23.70
2023-05-09T14:50:11.410Z,23.71
2023-05-09T14:53:13.225Z,23.65
2023-05-09T14:56:14.613Z,23.64
2023-05-09T14:59:16.301Z,23.39
2023-05-09T15:02:17.810Z,23.33
2023-05-09T15:05:19.203Z,23.29
2023-05-09T15:08:20.718Z,23.42
2023-05-09T15:11:22.522Z,23.49
2023-05-09T15:14:24.701Z,23.49
2023-05-09T15:17:26.470Z,23.56
2023-05-09T15:20:27.857Z,23.51
2023-05-09T15:23:29.600Z,23.43
2023-05-09T15:26:31.149Z,23.35
2023-05-09T15:29:32.525Z,23.31
2023-05-09T15:32:34.662Z,23.12
2023-05-09T15:35:36.732Z,23.07
2023-05-09T15:38:38.535Z,22.85
2023-05-09T15:41:40.347Z,22.84
2023-05-09T15:44:42.768Z,22.80
2023-05-09T15:47:44.254Z,22.80
2023-05-09T15:50:45.652Z,22.72
2023-05-09T15:53:47.162Z,22.79
2023-05-09T15:56:48.512Z,22.84
2023-05-09T15:59:49.885Z,22.85
2023-05-09T16:02:51.396Z,22.84
2023-05-09T16:05:53.207Z,23.04
2023-05-09T16:08:54.684Z,23.14
2023-05-09T16:11:56.345Z,22.84
2023-05-09T16:14:57.783Z,22.97
2023-05-09T16:17:59.121Z,22.82
2023-05-09T16:21:00.565Z,22.61
2023-05-09T16:24:03.206Z,22.69
2023-05-09T16:27:04.705Z,22.49
2023-05-09T16:30:06.632Z,22.26
2023-05-09T16:33:08.123Z,22.27
2023-05-09T16:36:09.615Z,22.25
2023-05-09T16:39:10.962Z,21.95
2023-05-09T16:42:13.408Z,21.93
2023-05-09T16:45:14.864Z,21.75
2023-05-09T16:48:17.847Z,21.81
2023-05-09T16:51:19.299Z,21.73
2023-05-09T16:54:21.329Z,21.74
2023-05-09T16:57:22.803Z,21.56
2023-05-09T17:00:24.175Z,21.48
2023-05-09T17:03:25.622Z,21.46
2023-05-09T17:06:27.963Z,21.37
2023-05-09T17:09:29.626Z,21.42
2023-05-09T17:12:31.015Z,21.47
2023-05-09T17:15:34.221Z,21.56
2023-05-09T17:18:38.044Z,21.55
2023-05-09T17:21:41.462Z,21.45
2023-05-09T17:24:43.627Z,21.50
2023-05-09T17:27:45.236Z,21.35
2023-05-09T17:30:46.771Z,21.27
2023-05-09T17:33:48.143Z,21.15
2023-05-09T17:36:49.906Z,21.22
2023-05-09T17:39:51.643Z,21.12
2023-05-09T17:42:53.224Z,21.18
2023-05-09T17:45:54.645Z,21.06
2023-05-09T17:48:56.299Z,20.95
2023-05-09T17:51:57.656Z,20.90
2023-05-09T17:55:00.299Z,20.86
2023-05-09T17:58:01.737Z,20.73
2023-05-09T18:01:03.148Z,20.72
2023-05-09T18:04:04.654Z,20.62
2023-05-09T18:07:06.089Z,20.55
2023-05-09T18:10:08.795Z,20.39
2023-05-09T18:13:10.814Z,20.31
2023-05-09T18:16:12.335Z,20.32
2023-05-09T18:19:13.777Z,20.24
2023-05-09T18:22:15.908Z,20.18
2023-05-09T18:25:17.358Z,20.21
2023-05-09T18:28:24.342Z,20.03
2023-05-09T18:31:25.872Z,20.10
2023-05-09T18:34:28.262Z,19.99
2023-05-09T18:37:29.819Z,20.09
2023-05-09T18:40:32.525Z,19.92
2023-05-09T18:43:35.237Z,19.85
2023-05-09T18:46:38.003Z,19.85
2023-05-09T18:49:39.434Z,19.86
2023-05-09T18:52:40.903Z,19.79
2023-05-09T18:55:42.726Z,19.71
2023-05-09T18:58:44.457Z,19.75
2023-05-09T19:01:45.853Z,19.74
2023-05-09T19:04:48.109Z,19.70
2023-05-09T19:07:49.821Z,19.67
2023-05-09T19:10:51.350Z,19.65
2023-05-09T19:13:53.229Z,19.65
2023-05-09T19:16:54.690Z,19.60
2023-05-09T19:19:56.126Z,19.54
2023-05-09T19:22:58.169Z,19.58
2023-05-09T19:25:59.919Z,19.49
2023-05-09T19:29:04.083Z,19.40
2023-05-09T19:32:06.947Z,19.40
2023-05-09T19:35:08.991Z,19.37
2023-05-09T19:38:13.009Z,19.36
2023-05-09T19:41:14.401Z,19.34
2023-05-09T19:44:15.831Z,19.31
2023-05-09T19:47:17.204Z,19.30
2023-05-09T19:50:18.814Z,19.25
2023-05-09T19:53:20.267Z,19.21
2023-05-09T19:56:23.359Z,19.14
2023-05-09T19:59:24.778Z,19.09
2023-05-09T20:02:26.282Z,18.95
2023-05-09T20:05:27.698Z,18.89
2023-05-09T20:08:29.913Z,18.87
2023-05-09T20:11:31.289Z,18.82
2023-05-09T20:14:32.835Z,18.75
2023-05-09T20:17:34.276Z,18.71
2023-05-09T20:20:35.721Z,18.61
2023-05-09T20:23:38.043Z,18.60
2023-05-09T20:26:39.457Z,18.63
2023-05-09T20:29:40.968Z,18.56
2023-05-09T20:32:43.052Z,18.43
2023-05-09T20:35:44.680Z,18.35
2023-05-09T20:38:46.007Z,18.34
2023-05-09T20:41:49.034Z,18.27
2023-05-09T20:44:51.507Z,18.18
2023-05-09T20:47:52.894Z,18.15
2023-05-09T20:50:54.258Z,18.17
2023-05-09T20:53:55.699Z,18.21
2023-05-09T20:56:57.143Z,18.13
2023-05-09T20:59:58.597Z,18.13
2023-05-09T21:03:00.471Z,18.02
2023-05-09T21:06:02.058Z,17.85
2023-05-09T21:09:05.360Z,17.88
2023-05-09T21:12:07.789Z,17.91
2023-05-09T21:15:10.934Z,17.73
2023-05-09T21:18:12.325Z,17.73
2023-05-09T21:21:13.721Z,17.69
2023-05-09T21:24:15.066Z,17.64
2023-05-09T21:27:16.605Z,17.75
2023-05-09T21:30:18.128Z,17.83
2023-05-09T21:33:20.650Z,17.76
2023-05-09T21:36:22.098Z,17.83
2023-05-09T21:39:23.488Z,17.80
2023-05-09T21:42:24.853Z,17.70
2023-05-09T21:45:26.231Z,17.65
2023-05-09T21:48:27.657Z,17.66
2023-05-09T21:51:29.533Z,17.57
2023-05-09T21:54:30.940Z,17.45
2023-05-09T21:57:32.296Z,17.44
2023-05-09T22:00:33.733Z,17.33
2023-05-09T22:03:35.791Z,17.35
2023-05-09T22:06:37.292Z,17.26
2023-05-09T22:09:38.634Z,17.21
2023-05-09T22:12:40.067Z,17.29
2023-05-09T22:15:42.183Z,17.36
2023-05-09T22:18:43.558Z,17.39
2023-05-09T22:21:44.954Z,17.40
2023-05-09T22:24:46.318Z,17.43
2023-05-09T22:27:47.776Z,17.38
2023-05-09T22:30:49.236Z,17.38
2023-05-09T22:33:50.666Z,17.36
2023-05-09T22:36:54.337Z,17.41
2023-05-09T22:39:55.767Z,17.42
2023-05-09T22:42:57.199Z,17.36
2023-05-09T22:45:58.568Z,17.35
2023-05-09T22:48:59.922Z,17.21
2023-05-09T22:52:01.518Z,17.30
2023-05-09T22:55:03.382Z,17.32
2023-05-09T22:58:05.942Z,17.30
2023-05-09T23:01:07.343Z,17.25
2023-05-09T23:04:08.729Z,17.20
2023-05-09T23:07:10.109Z,17.28
2023-05-09T23:10:11.492Z,17.30
2023-05-09T23:13:12.853Z,17.29
2023-05-09T23:16:14.327Z,17.22
2023-05-09T23:19:15.699Z,17.17
2023-05-09T23:22:17.077Z,16.97
2023-05-09T23:25:18.517Z,17.06
2023-05-09T23:28:25.100Z,17.06
2023-05-09T23:31:26.520Z,17.12
2023-05-09T23:34:27.961Z,17.10
2023-05-09T23:37:29.359Z,17.07
2023-05-09T23:40:30.826Z,17.04
2023-05-09T23:43:32.637Z,16.90
2023-05-09T23:46:34.117Z,16.98
2023-05-09T23:49:35.930Z,17.00
2023-05-09T23:52:37.320Z,17.01
2023-05-09T23:55:38.762Z,17.02
2023-05-09T23:58:40.322Z,16.97
